This is the latest recevied weather packets stored in our database for station/object IU2MCH-13. If no packets are shown the sender has not sent any weather packets the latest 1 day(s).
| Time | Temp. | Humidity | Pressure | Rain* | Wind** | Luminosity | Snow |
|---|---|---|---|---|---|---|---|
| 1778090080 | 15° C | 76% | 1008 hPa | - | - | - | - |
| 1778089535 | 15° C | 76% | 1008 hPa | - | - | - | - |
| 1778088482 | 15° C | 76% | 1008 hPa | - | - | - | - |
| 1778087459 | 15.56° C | 72% | 1007 hPa | - | - | - | - |
| 1778087061 | 15.56° C | 72% | 1007 hPa | - | - | - | - |
| 1778086558 | 15.56° C | 72% | 1007 hPa | - | - | - | - |
| 1778086405 | 16.67° C | 67% | 1006 hPa | - | - | - | - |
| 1778078942 | 20° C | 68% | 1006 hPa | - | - | - | - |
| 1778078807 | 20° C | 68% | 1006 hPa | - | - | - | - |
| 1778078537 | 20° C | 68% | 1006 hPa | - | - | - | - |
| 1778077768 | 20° C | 68% | 1006 hPa | - | - | - | - |
| 1778077506 | 20° C | 68% | 1007 hPa | - | - | - | - |
| 1778077138 | 20° C | 68% | 1007 hPa | - | - | - | - |
| 1778076465 | 20° C | 68% | 1007 hPa | - | - | - | - |
| 1778076318 | 20° C | 68% | 1007 hPa | - | - | - | - |
| 1778076192 | 20° C | 68% | 1007 hPa | - | - | - | - |
| 1778071755 | 18.89° C | 72% | 1008 hPa | - | - | - | - |
| 1778071101 | 18.89° C | 72% | 1008 hPa | - | - | - | - |
| 1778070562 | 18.89° C | 72% | 1008 hPa | - | - | - | - |
| 1778069340 | 17.78° C | 82% | 1008 hPa | - | - | - | - |
| 1778069215 | 17.78° C | 82% | 1008 hPa | - | - | - | - |
| 1778069094 | 17.78° C | 82% | 1008 hPa | - | - | - | - |
| 1778063962 | 15.56° C | 87% | 1008 hPa | - | - | - | - |
| 1778063836 | 15.56° C | 87% | 1008 hPa | - | - | - | - |
| 1778063588 | 15.56° C | 87% | 1008 hPa | - | - | - | - |
* Rain since midnight (hover to see other rain measurements)
** Current wind speed in m/s (hover to see current wind gust speed)